createdAt,value
2018-07-20T00:01:04.335Z,2.83
2018-07-20T00:03:33.155Z,2.93
2018-07-20T00:06:01.948Z,3.50
2018-07-20T00:08:30.986Z,3.30
2018-07-20T00:11:00.041Z,3.10
2018-07-20T00:13:29.051Z,2.93
2018-07-20T00:15:58.193Z,3.23
2018-07-20T00:18:27.392Z,2.80
2018-07-20T00:20:56.494Z,3.33
2018-07-20T00:23:25.239Z,2.73
2018-07-20T00:25:54.134Z,2.80
2018-07-20T00:28:22.692Z,3.07
2018-07-20T00:30:51.387Z,2.93
2018-07-20T00:33:20.020Z,3.30
2018-07-20T00:35:48.211Z,3.20
2018-07-20T00:38:16.654Z,3.30
2018-07-20T00:40:45.117Z,3.37
2018-07-20T00:43:13.879Z,3.43
2018-07-20T00:45:42.295Z,3.00
2018-07-20T00:48:10.715Z,3.50
2018-07-20T00:50:39.184Z,3.80
2018-07-20T00:53:07.628Z,3.53
2018-07-20T00:55:36.232Z,3.30
2018-07-20T00:58:04.906Z,3.23
2018-07-20T01:00:33.558Z,2.73
2018-07-20T01:03:02.255Z,3.23
2018-07-20T01:05:30.972Z,3.30
2018-07-20T01:07:59.995Z,3.40
2018-07-20T01:10:28.862Z,3.70
2018-07-20T01:12:58.431Z,3.20
2018-07-20T01:15:27.995Z,3.80
2018-07-20T01:17:56.934Z,3.60
2018-07-20T01:20:25.979Z,3.53
2018-07-20T01:22:55.423Z,3.17
2018-07-20T01:25:24.059Z,2.70
2018-07-20T01:27:52.803Z,3.00
2018-07-20T01:30:21.425Z,3.20
2018-07-20T01:32:50.632Z,3.07
2018-07-20T01:35:19.120Z,3.20
2018-07-20T01:37:47.573Z,3.90
2018-07-20T01:40:16.014Z,3.53
2018-07-20T01:42:44.446Z,4.13
2018-07-20T01:45:12.944Z,3.87
2018-07-20T01:47:41.088Z,3.63
2018-07-20T01:50:09.840Z,3.97
2018-07-20T01:52:38.283Z,3.70
2018-07-20T01:55:06.857Z,4.33
2018-07-20T01:57:35.546Z,4.03
2018-07-20T02:00:04.847Z,4.30
2018-07-20T02:02:33.439Z,4.00
2018-07-20T02:05:02.067Z,4.17
2018-07-20T02:07:30.702Z,4.03
2018-07-20T02:09:59.396Z,4.20
2018-07-20T02:12:28.418Z,4.33
2018-07-20T02:14:57.725Z,4.20
2018-07-20T02:17:26.788Z,4.00
2018-07-20T02:19:55.685Z,3.70
2018-07-20T02:22:24.384Z,4.20
2018-07-20T02:24:53.215Z,4.40
2018-07-20T02:27:21.778Z,3.47
2018-07-20T02:29:50.350Z,3.80
2018-07-20T02:32:19.137Z,4.17
2018-07-20T02:34:47.672Z,2.80
2018-07-20T02:37:16.287Z,3.90
2018-07-20T02:39:44.685Z,3.57
2018-07-20T02:42:13.084Z,3.20
2018-07-20T02:44:41.543Z,4.13
2018-07-20T02:47:10.052Z,3.40
2018-07-20T02:49:38.503Z,3.57
2018-07-20T02:52:06.926Z,3.70
2018-07-20T02:54:35.503Z,3.90
2018-07-20T02:57:04.135Z,3.50
2018-07-20T02:59:32.824Z,3.63
2018-07-20T03:02:01.459Z,4.03
2018-07-20T03:04:30.241Z,3.93
2018-07-20T03:06:59.095Z,3.90
2018-07-20T03:09:27.888Z,3.40
2018-07-20T03:11:56.915Z,3.87
2018-07-20T03:14:25.768Z,3.37
2018-07-20T03:16:54.335Z,3.30
2018-07-20T03:19:23.065Z,4.60
2018-07-20T03:21:51.622Z,4.00
2018-07-20T03:24:19.890Z,3.50
2018-07-20T03:26:48.438Z,3.60
2018-07-20T03:29:16.843Z,4.13
2018-07-20T03:31:45.296Z,3.60
2018-07-20T03:34:13.769Z,3.90
2018-07-20T03:36:42.188Z,4.00
2018-07-20T03:39:11.060Z,4.27
2018-07-20T03:41:39.563Z,4.33
2018-07-20T03:44:08.480Z,4.63
2018-07-20T03:46:37.251Z,5.13
2018-07-20T03:49:06.074Z,3.93
2018-07-20T03:51:34.778Z,4.77
2018-07-20T03:54:03.295Z,4.40
2018-07-20T03:56:31.886Z,4.97
2018-07-20T03:59:00.462Z,5.13
2018-07-20T04:01:29.059Z,4.80
2018-07-20T04:03:57.363Z,4.60
2018-07-20T04:06:26.078Z,4.73
2018-07-20T04:08:54.602Z,5.37
2018-07-20T04:11:23.011Z,5.27
2018-07-20T04:13:51.534Z,5.40
2018-07-20T04:16:20.171Z,5.90
2018-07-20T04:18:48.547Z,6.27
2018-07-20T04:21:16.929Z,6.10
2018-07-20T04:23:45.435Z,6.30
2018-07-20T04:26:13.975Z,5.50
2018-07-20T04:28:42.486Z,5.50
2018-07-20T04:31:10.983Z,5.47
2018-07-20T04:33:39.407Z,5.10
2018-07-20T04:36:11.720Z,5.33
2018-07-20T04:38:40.306Z,5.20
2018-07-20T04:41:08.722Z,5.03
2018-07-20T04:43:37.225Z,5.03
2018-07-20T04:46:05.639Z,5.00
2018-07-20T04:48:34.078Z,5.37
2018-07-20T04:51:02.660Z,4.90
2018-07-20T04:53:31.258Z,5.03
2018-07-20T04:55:59.775Z,4.83
2018-07-20T04:58:28.298Z,4.83
2018-07-20T05:00:56.966Z,5.00
2018-07-20T05:03:26.739Z,4.60
2018-07-20T05:05:55.652Z,5.47
2018-07-20T05:08:24.114Z,5.37
2018-07-20T05:10:52.634Z,4.50
2018-07-20T05:13:21.170Z,5.70
2018-07-20T05:15:49.694Z,4.97
2018-07-20T05:18:18.218Z,4.37
2018-07-20T05:20:46.650Z,4.53
2018-07-20T05:23:15.010Z,5.20
2018-07-20T05:25:43.455Z,6.10
2018-07-20T05:28:11.929Z,5.23
2018-07-20T05:30:40.283Z,4.80
2018-07-20T05:33:08.679Z,4.77
2018-07-20T05:35:37.138Z,4.83
2018-07-20T05:38:05.602Z,4.30
2018-07-20T05:40:34.030Z,5.63
2018-07-20T05:43:02.588Z,5.47
2018-07-20T05:45:31.130Z,4.47
2018-07-20T05:47:59.660Z,5.40
2018-07-20T05:50:28.394Z,5.03
2018-07-20T05:52:57.009Z,5.03
2018-07-20T05:55:26.046Z,4.57
2018-07-20T05:57:55.055Z,4.60
2018-07-20T06:00:23.598Z,4.90
2018-07-20T06:02:52.111Z,5.10
2018-07-20T06:05:21.302Z,5.00
2018-07-20T06:07:50.166Z,4.73
2018-07-20T06:10:18.715Z,4.60
2018-07-20T06:12:47.218Z,4.10
2018-07-20T06:15:15.593Z,4.80
2018-07-20T06:17:43.999Z,4.43
2018-07-20T06:20:12.421Z,5.10
2018-07-20T06:22:40.986Z,4.53
2018-07-20T06:25:09.427Z,4.43
2018-07-20T06:27:37.840Z,4.50
2018-07-20T06:30:06.868Z,4.43
2018-07-20T06:32:35.297Z,4.10
2018-07-20T06:35:03.914Z,4.13
2018-07-20T06:37:33.043Z,4.67
2018-07-20T06:40:01.722Z,3.90
2018-07-20T06:42:29.982Z,4.00
2018-07-20T06:44:58.785Z,3.47
2018-07-20T06:47:27.527Z,3.80
2018-07-20T06:49:56.372Z,3.90
2018-07-20T06:52:25.403Z,4.37
2018-07-20T06:54:54.502Z,4.10
2018-07-20T06:57:22.994Z,4.07
2018-07-20T06:59:51.639Z,3.70
2018-07-20T07:02:21.852Z,3.80
2018-07-20T07:04:50.385Z,3.70
2018-07-20T07:07:18.801Z,3.20
2018-07-20T07:09:47.239Z,3.10
2018-07-20T07:12:15.592Z,2.83
2018-07-20T07:14:44.093Z,3.03
2018-07-20T07:17:12.503Z,3.00
2018-07-20T07:19:41.615Z,3.00
2018-07-20T07:22:10.436Z,3.30
2018-07-20T07:24:39.495Z,3.13
2018-07-20T07:27:07.983Z,2.90
2018-07-20T07:29:36.387Z,3.13
2018-07-20T07:32:04.875Z,3.13
2018-07-20T07:34:33.428Z,2.93
2018-07-20T07:37:01.988Z,3.27
2018-07-20T07:39:30.700Z,2.63
2018-07-20T07:41:59.653Z,3.20
2018-07-20T07:44:28.495Z,2.70
2018-07-20T07:46:57.182Z,2.90
2018-07-20T07:49:26.161Z,3.03
2018-07-20T07:51:54.718Z,3.10
2018-07-20T07:54:23.291Z,2.70
2018-07-20T07:56:52.271Z,2.50
2018-07-20T07:59:21.334Z,3.00
2018-07-20T08:01:49.774Z,2.60
2018-07-20T08:04:18.590Z,2.37
2018-07-20T08:06:47.006Z,2.70
2018-07-20T08:09:15.515Z,2.40
2018-07-20T08:11:43.813Z,2.70
2018-07-20T08:14:13.053Z,2.33
2018-07-20T08:16:41.434Z,3.37
2018-07-20T08:19:09.867Z,2.90
2018-07-20T08:21:38.317Z,2.57
2018-07-20T08:24:07.242Z,2.50
2018-07-20T08:26:35.787Z,2.90
2018-07-20T08:29:04.439Z,2.80
2018-07-20T08:31:32.915Z,2.63
2018-07-20T08:34:01.532Z,2.73
2018-07-20T08:36:30.166Z,2.77
2018-07-20T08:38:59.012Z,3.07
2018-07-20T08:41:28.044Z,2.33
2018-07-20T08:43:56.895Z,2.60
2018-07-20T08:46:25.679Z,2.20
2018-07-20T08:48:55.045Z,2.40
2018-07-20T08:51:23.544Z,2.30
2018-07-20T08:53:52.008Z,2.60
2018-07-20T08:56:20.929Z,2.27
2018-07-20T08:58:49.687Z,2.40
2018-07-20T09:01:18.407Z,4.00
2018-07-20T09:03:46.834Z,2.73
2018-07-20T09:06:15.215Z,2.50
2018-07-20T09:08:43.614Z,2.60
2018-07-20T09:11:12.047Z,2.70
2018-07-20T09:13:40.507Z,2.80
2018-07-20T09:16:08.861Z,2.30
2018-07-20T09:18:37.388Z,2.53
2018-07-20T09:21:05.846Z,2.40
2018-07-20T09:23:34.263Z,2.80
2018-07-20T09:26:02.999Z,3.00
2018-07-20T09:28:32.498Z,2.77
2018-07-20T09:31:01.389Z,2.83
2018-07-20T09:33:29.905Z,2.37
2018-07-20T09:35:59.710Z,2.27
2018-07-20T09:38:29.151Z,1.90
2018-07-20T09:40:58.255Z,1.93
2018-07-20T09:43:28.000Z,2.47
2018-07-20T09:45:56.681Z,2.10
2018-07-20T09:48:26.626Z,2.27
2018-07-20T09:50:55.934Z,1.93
2018-07-20T09:53:24.727Z,2.20
2018-07-20T09:55:53.484Z,2.20
2018-07-20T09:58:22.361Z,2.13
2018-07-20T10:00:52.079Z,2.40
2018-07-20T10:03:21.839Z,2.60
2018-07-20T10:05:50.347Z,2.17
2018-07-20T10:08:19.920Z,2.67
2018-07-20T10:10:48.620Z,2.30
2018-07-20T10:13:17.763Z,2.00
2018-07-20T10:15:46.524Z,2.20
2018-07-20T10:18:15.539Z,2.10
2018-07-20T10:20:44.160Z,2.40
2018-07-20T10:23:12.866Z,2.23
2018-07-20T10:25:41.588Z,2.53
2018-07-20T10:28:10.236Z,2.17
2018-07-20T10:30:39.019Z,2.60
2018-07-20T10:33:07.803Z,2.17
2018-07-20T10:35:37.270Z,1.87
2018-07-20T10:38:06.094Z,2.20
2018-07-20T10:40:34.649Z,2.00
2018-07-20T10:43:03.266Z,2.03
2018-07-20T10:45:32.078Z,2.17
2018-07-20T10:48:05.583Z,2.30
2018-07-20T10:50:34.234Z,2.17
2018-07-20T10:53:03.139Z,2.20
2018-07-20T10:55:32.027Z,2.20
2018-07-20T10:58:00.385Z,2.60
2018-07-20T11:00:29.207Z,2.50
2018-07-20T11:02:58.491Z,2.20
2018-07-20T11:05:27.527Z,2.30
2018-07-20T11:07:56.479Z,2.10
2018-07-20T11:10:25.440Z,2.20
2018-07-20T11:12:54.191Z,2.47
2018-07-20T11:15:23.107Z,2.20
2018-07-20T11:17:52.479Z,2.33
2018-07-20T11:20:21.551Z,2.40
2018-07-20T11:22:57.495Z,2.33
2018-07-20T11:25:26.618Z,2.20
2018-07-20T11:27:55.739Z,2.40
2018-07-20T11:30:25.195Z,2.30
2018-07-20T11:32:54.016Z,2.33
2018-07-20T11:35:22.679Z,2.20
2018-07-20T11:37:51.172Z,2.43
2018-07-20T11:40:19.843Z,2.53
2018-07-20T11:42:48.446Z,2.47
2018-07-20T11:45:16.883Z,2.27
2018-07-20T11:47:45.287Z,2.30
2018-07-20T11:50:13.770Z,2.50
2018-07-20T11:52:42.276Z,2.10
2018-07-20T11:55:10.736Z,2.43
2018-07-20T11:57:39.190Z,2.70
2018-07-20T12:00:07.710Z,2.47
2018-07-20T12:02:36.259Z,2.37
2018-07-20T12:05:05.150Z,2.40
2018-07-20T12:07:34.228Z,2.43
2018-07-20T12:10:02.874Z,2.20
2018-07-20T12:12:31.736Z,2.37
2018-07-20T12:15:00.591Z,2.10
2018-07-20T12:17:30.023Z,2.80
2018-07-20T12:19:59.519Z,2.63
2018-07-20T12:22:29.061Z,2.60
2018-07-20T12:24:58.312Z,2.23
2018-07-20T12:27:27.990Z,2.20
2018-07-20T12:29:56.956Z,2.53
2018-07-20T12:32:25.904Z,2.37
2018-07-20T12:34:54.920Z,2.60
2018-07-20T12:37:23.707Z,2.50
2018-07-20T12:39:52.342Z,2.50
2018-07-20T12:42:21.371Z,2.70
2018-07-20T12:44:49.981Z,2.63
2018-07-20T12:47:18.628Z,2.13
2018-07-20T12:49:46.990Z,2.30
2018-07-20T12:52:15.650Z,2.73
2018-07-20T12:54:44.039Z,2.60
2018-07-20T12:57:12.588Z,2.50
2018-07-20T12:59:41.258Z,2.33
2018-07-20T13:02:09.743Z,2.27
2018-07-20T13:04:38.391Z,2.10
2018-07-20T13:07:07.092Z,2.47
2018-07-20T13:09:35.783Z,2.30
2018-07-20T13:12:04.525Z,2.53
2018-07-20T13:14:33.301Z,2.47
2018-07-20T13:17:02.189Z,2.20
2018-07-20T13:19:31.394Z,2.33
2018-07-20T13:22:00.397Z,2.27
2018-07-20T13:24:29.510Z,2.60
2018-07-20T13:26:59.229Z,2.37
2018-07-20T13:29:28.583Z,2.47
2018-07-20T13:31:57.789Z,2.50
2018-07-20T13:34:27.987Z,2.20
2018-07-20T13:36:57.830Z,2.77
2018-07-20T13:39:27.655Z,2.23
2018-07-20T13:41:57.801Z,2.53
2018-07-20T13:44:27.903Z,2.33
2018-07-20T13:46:56.933Z,2.60
2018-07-20T13:49:25.980Z,2.20
2018-07-20T13:51:55.030Z,2.20
2018-07-20T13:54:24.830Z,2.30
2018-07-20T13:56:53.772Z,2.57
2018-07-20T13:59:22.802Z,2.63
2018-07-20T14:01:51.746Z,2.30
2018-07-20T14:04:20.526Z,2.37
2018-07-20T14:06:49.123Z,2.60
2018-07-20T14:09:17.686Z,2.40
2018-07-20T14:11:46.123Z,2.60
2018-07-20T14:14:14.811Z,2.50
2018-07-20T14:16:43.279Z,2.50
2018-07-20T14:19:17.768Z,2.73
2018-07-20T14:21:46.390Z,2.60
2018-07-20T14:24:14.747Z,3.03
2018-07-20T14:26:43.176Z,2.67
2018-07-20T14:29:11.830Z,2.40
2018-07-20T14:31:40.451Z,2.30
2018-07-20T14:34:08.899Z,2.43
2018-07-20T14:36:37.418Z,2.30
2018-07-20T14:39:08.912Z,2.30
2018-07-20T14:41:38.479Z,2.50
2018-07-20T14:44:07.093Z,2.70
2018-07-20T14:46:35.656Z,2.50
2018-07-20T14:49:04.730Z,2.50
2018-07-20T14:51:33.431Z,2.40
2018-07-20T14:54:02.143Z,2.87
2018-07-20T14:56:30.950Z,2.50
2018-07-20T14:58:59.459Z,2.53
2018-07-20T15:01:28.333Z,2.57
2018-07-20T15:03:57.235Z,2.73
2018-07-20T15:06:26.239Z,2.47
2018-07-20T15:08:54.870Z,2.53
2018-07-20T15:11:23.376Z,2.80
2018-07-20T15:13:51.812Z,2.57
2018-07-20T15:16:20.394Z,2.60
2018-07-20T15:18:48.953Z,2.77
2018-07-20T15:21:17.451Z,2.47
2018-07-20T15:23:45.911Z,2.67
2018-07-20T15:26:14.306Z,2.57
2018-07-20T15:28:42.737Z,2.80
2018-07-20T15:31:11.266Z,2.50
2018-07-20T15:33:39.781Z,2.97
2018-07-20T15:36:08.204Z,2.50
2018-07-20T15:38:36.811Z,3.00
2018-07-20T15:41:05.526Z,2.73
2018-07-20T15:43:34.161Z,2.60
2018-07-20T15:46:06.237Z,2.97
2018-07-20T15:48:31.735Z,2.90
2018-07-20T15:51:00.455Z,2.80
2018-07-20T15:53:37.358Z,2.83
2018-07-20T15:55:59.555Z,2.97
2018-07-20T15:58:28.985Z,3.10
2018-07-20T16:00:58.418Z,2.90
2018-07-20T16:03:28.393Z,2.53
2018-07-20T16:05:57.241Z,3.43
2018-07-20T16:08:26.211Z,2.80
2018-07-20T16:10:55.176Z,2.60
2018-07-20T16:13:24.047Z,2.70
2018-07-20T16:15:52.436Z,3.10
2018-07-20T16:18:20.886Z,2.80
2018-07-20T16:20:49.246Z,2.70
2018-07-20T16:23:17.643Z,2.43
2018-07-20T16:25:46.084Z,3.03
2018-07-20T16:28:14.391Z,2.83
2018-07-20T16:30:42.802Z,3.03
2018-07-20T16:33:28.254Z,2.60
2018-07-20T16:35:57.131Z,2.77
2018-07-20T16:38:25.961Z,2.73
2018-07-20T16:40:54.648Z,2.90
2018-07-20T16:43:23.345Z,2.83
2018-07-20T16:45:51.920Z,3.13
2018-07-20T16:48:20.399Z,2.97
2018-07-20T16:50:48.911Z,3.10
2018-07-20T16:53:17.632Z,2.80
2018-07-20T16:55:46.104Z,2.97
2018-07-20T16:58:14.626Z,3.40
2018-07-20T17:00:43.923Z,4.20
2018-07-20T17:03:22.162Z,3.13
2018-07-20T17:05:50.591Z,3.40
2018-07-20T17:08:19.172Z,3.10
2018-07-20T17:10:47.710Z,3.83
2018-07-20T17:13:16.087Z,3.40
2018-07-20T17:15:44.495Z,3.10
2018-07-20T17:18:12.839Z,2.90
2018-07-20T17:20:41.243Z,3.17
2018-07-20T17:23:09.707Z,3.07
2018-07-20T17:25:38.206Z,3.10
2018-07-20T17:28:07.079Z,2.70
2018-07-20T17:30:35.756Z,3.20
2018-07-20T17:33:04.798Z,2.83
2018-07-20T17:35:33.543Z,2.53
2018-07-20T17:38:02.203Z,2.90
2018-07-20T17:40:30.943Z,3.00
2018-07-20T17:42:59.911Z,3.27
2018-07-20T17:45:29.091Z,4.67
2018-07-20T17:47:58.763Z,3.70
2018-07-20T17:50:28.404Z,3.40
2018-07-20T17:52:57.723Z,3.57
2018-07-20T17:55:26.515Z,3.50
2018-07-20T17:57:57.177Z,3.00
2018-07-20T18:00:26.748Z,2.73
2018-07-20T18:02:56.144Z,3.33
2018-07-20T18:05:25.372Z,2.90
2018-07-20T18:07:53.990Z,2.67
2018-07-20T18:10:22.538Z,2.70
2018-07-20T18:12:50.914Z,3.17
2018-07-20T18:15:19.218Z,3.20
2018-07-20T18:17:47.735Z,3.00
2018-07-20T18:20:16.212Z,3.30
2018-07-20T18:22:44.790Z,2.93
2018-07-20T18:25:14.207Z,3.23
2018-07-20T18:27:42.750Z,3.07
2018-07-20T18:30:11.150Z,3.47
2018-07-20T18:32:39.627Z,3.10
2018-07-20T18:35:08.112Z,3.23
2018-07-20T18:37:36.947Z,3.30
2018-07-20T18:40:05.876Z,3.53
2018-07-20T18:42:34.768Z,3.10
2018-07-20T18:45:03.587Z,3.87
2018-07-20T18:47:32.683Z,4.00
2018-07-20T18:50:01.466Z,3.40
2018-07-20T18:52:31.405Z,3.33
2018-07-20T18:55:00.169Z,3.60
2018-07-20T18:57:29.234Z,3.27
2018-07-20T18:59:58.584Z,3.43
2018-07-20T19:02:28.030Z,3.30
2018-07-20T19:04:57.489Z,3.57
2018-07-20T19:07:26.959Z,3.30
2018-07-20T19:09:55.819Z,3.50
2018-07-20T19:12:24.440Z,3.63
2018-07-20T19:14:57.183Z,3.70
2018-07-20T19:17:26.034Z,3.50
2018-07-20T19:19:55.318Z,3.33
2018-07-20T19:22:24.523Z,3.20
2018-07-20T19:24:53.065Z,3.63
2018-07-20T19:27:21.595Z,3.43
2018-07-20T19:29:50.061Z,3.27
2018-07-20T19:32:18.516Z,3.30
2018-07-20T19:34:46.923Z,2.97
2018-07-20T19:37:15.325Z,3.03
2018-07-20T19:39:43.819Z,3.30
2018-07-20T19:42:12.178Z,3.30
2018-07-20T19:44:40.672Z,3.60
2018-07-20T19:47:09.093Z,2.90
2018-07-20T19:49:37.919Z,3.50
2018-07-20T19:52:07.033Z,3.20
2018-07-20T19:54:35.605Z,3.77
2018-07-20T19:57:04.425Z,3.30
2018-07-20T19:59:33.223Z,3.60
2018-07-20T20:02:02.744Z,3.33
2018-07-20T20:04:31.475Z,2.87
2018-07-20T20:07:00.480Z,3.17
2018-07-20T20:09:29.683Z,3.17
2018-07-20T20:11:59.048Z,3.47
2018-07-20T20:14:28.283Z,3.70
2018-07-20T20:16:57.601Z,4.13
2018-07-20T20:19:27.517Z,3.90
2018-07-20T20:21:57.118Z,3.83
2018-07-20T20:24:26.214Z,3.67
2018-07-20T20:26:54.833Z,4.27
2018-07-20T20:29:23.292Z,4.23
2018-07-20T20:31:51.778Z,4.20
2018-07-20T20:34:20.327Z,3.93
2018-07-20T20:36:48.858Z,4.00
2018-07-20T20:39:29.930Z,4.07
2018-07-20T20:41:59.272Z,3.47
2018-07-20T20:44:28.643Z,3.43
2018-07-20T20:46:57.824Z,5.57
2018-07-20T20:49:27.355Z,5.67
2018-07-20T20:51:57.112Z,6.30
2018-07-20T20:54:26.092Z,5.17
2018-07-20T20:56:54.935Z,5.10
2018-07-20T20:59:24.319Z,6.00
2018-07-20T21:01:53.523Z,5.63
2018-07-20T21:04:22.513Z,6.23
2018-07-20T21:06:50.854Z,5.87
2018-07-20T21:09:19.217Z,5.20
2018-07-20T21:11:47.713Z,5.20
2018-07-20T21:14:26.761Z,5.00
2018-07-20T21:16:55.855Z,4.37
2018-07-20T21:19:25.091Z,3.97
2018-07-20T21:21:53.814Z,4.50
2018-07-20T21:24:22.395Z,4.77
2018-07-20T21:26:50.779Z,4.57
2018-07-20T21:29:19.159Z,4.70
2018-07-20T21:31:47.729Z,4.93
2018-07-20T21:34:16.191Z,4.50
2018-07-20T21:36:44.587Z,4.63
2018-07-20T21:39:13.839Z,4.63
2018-07-20T21:41:43.286Z,4.57
2018-07-20T21:44:11.879Z,4.37
2018-07-20T21:46:40.291Z,4.77
2018-07-20T21:49:08.871Z,4.30
2018-07-20T21:51:38.367Z,4.73
2018-07-20T21:54:07.683Z,5.60
2018-07-20T21:56:36.863Z,4.80
2018-07-20T21:59:05.758Z,5.07
2018-07-20T22:01:34.890Z,4.77
2018-07-20T22:04:04.072Z,4.20
2018-07-20T22:06:32.805Z,4.33
2018-07-20T22:09:02.562Z,4.30
2018-07-20T22:11:31.564Z,4.33
2018-07-20T22:14:00.345Z,4.53
2018-07-20T22:16:30.014Z,4.50
2018-07-20T22:18:59.858Z,4.30
2018-07-20T22:21:30.191Z,3.97
2018-07-20T22:24:00.206Z,4.30
2018-07-20T22:26:29.708Z,4.00
2018-07-20T22:28:59.327Z,4.03
2018-07-20T22:31:29.686Z,4.37
2018-07-20T22:33:59.927Z,3.80
2018-07-20T22:36:29.078Z,3.50
2018-07-20T22:38:59.338Z,3.47
2018-07-20T22:41:29.089Z,3.10
2018-07-20T22:43:59.225Z,3.17
2018-07-20T22:46:29.168Z,3.40
2018-07-20T22:48:59.342Z,3.20
2018-07-20T22:51:29.427Z,3.20
2018-07-20T22:53:59.003Z,2.97
2018-07-20T22:56:29.093Z,3.60
2018-07-20T22:58:59.539Z,3.20
2018-07-20T23:01:29.546Z,3.87
2018-07-20T23:03:59.487Z,3.60
2018-07-20T23:06:30.089Z,3.60
2018-07-20T23:08:59.206Z,3.43
2018-07-20T23:11:29.413Z,4.03
2018-07-20T23:13:59.359Z,3.70
2018-07-20T23:16:29.337Z,3.90
2018-07-20T23:18:59.514Z,4.17
2018-07-20T23:21:29.718Z,3.60
2018-07-20T23:23:59.877Z,3.70
2018-07-20T23:26:30.073Z,4.53
2018-07-20T23:29:00.156Z,3.73
2018-07-20T23:31:30.471Z,4.20
2018-07-20T23:34:00.325Z,3.87
2018-07-20T23:36:30.154Z,3.93
2018-07-20T23:38:59.905Z,4.57
2018-07-20T23:41:29.809Z,4.37
2018-07-20T23:44:00.003Z,3.90
2018-07-20T23:46:29.958Z,3.80
2018-07-20T23:48:59.893Z,4.13
2018-07-20T23:51:29.855Z,3.73
2018-07-20T23:53:59.833Z,4.03
2018-07-20T23:56:29.786Z,4.10
2018-07-20T23:58:59.651Z,4.43
